createdAt,value
2022-12-11T00:00:11.969Z,19.50
2022-12-11T00:00:22.731Z,18.30
2022-12-11T00:00:33.493Z,17.90
2022-12-11T00:00:44.263Z,18.40
2022-12-11T00:00:55.005Z,18.60
2022-12-11T00:01:06.724Z,19.10
2022-12-11T00:01:19.183Z,19.40
2022-12-11T00:01:30.894Z,20.50
2022-12-11T00:01:42.700Z,21.30
2022-12-11T00:01:53.480Z,22.30
2022-12-11T00:02:05.476Z,23.00
2022-12-11T00:02:17.298Z,23.60
2022-12-11T00:02:28.107Z,22.10
2022-12-11T00:02:38.949Z,21.00
2022-12-11T00:02:52.191Z,20.70
2022-12-11T00:03:03.997Z,19.80
2022-12-11T00:03:17.235Z,19.50
2022-12-11T00:03:28.112Z,19.50
2022-12-11T00:03:38.918Z,19.90
2022-12-11T00:03:49.659Z,19.30
2022-12-11T00:04:00.388Z,20.00
2022-12-11T00:04:12.094Z,19.70
2022-12-11T00:04:22.882Z,19.10
2022-12-11T00:04:33.612Z,17.80
2022-12-11T00:04:45.843Z,18.00
2022-12-11T00:04:58.080Z,17.80
2022-12-11T00:05:10.147Z,18.30
2022-12-11T00:05:21.024Z,18.70
2022-12-11T00:05:33.215Z,18.90
2022-12-11T00:05:43.967Z,18.30
2022-12-11T00:05:54.694Z,18.00
2022-12-11T00:06:07.153Z,17.10
2022-12-11T00:06:18.866Z,17.20
2022-12-11T00:06:30.568Z,18.00
2022-12-11T00:06:41.304Z,18.80
2022-12-11T00:06:52.035Z,18.60
2022-12-11T00:07:03.805Z,18.20
2022-12-11T00:07:14.536Z,17.50
2022-12-11T00:07:28.273Z,17.90
2022-12-11T00:07:39.044Z,19.30
2022-12-11T00:07:49.849Z,19.60
2022-12-11T00:08:00.594Z,19.10
2022-12-11T00:08:13.736Z,19.20
2022-12-11T00:08:25.575Z,19.20
2022-12-11T00:08:36.373Z,18.20
2022-12-11T00:08:48.115Z,18.40
2022-12-11T00:08:59.813Z,18.20
2022-12-11T00:09:10.573Z,18.80
2022-12-11T00:09:21.335Z,20.20
2022-12-11T00:09:33.135Z,22.90
2022-12-11T00:09:43.968Z,22.80
2022-12-11T00:09:54.754Z,21.30
2022-12-11T00:10:05.483Z,19.10
2022-12-11T00:10:17.934Z,19.20
2022-12-11T00:10:34.639Z,22.90
2022-12-11T00:10:46.044Z,30.00
2022-12-11T00:10:57.776Z,31.20
2022-12-11T00:11:08.594Z,30.00
2022-12-11T00:11:19.352Z,28.70
2022-12-11T00:11:30.165Z,28.30
2022-12-11T00:11:42.361Z,32.40
2022-12-11T00:11:54.099Z,35.00
2022-12-11T00:12:04.856Z,33.10
2022-12-11T00:12:18.074Z,26.40
2022-12-11T00:12:28.888Z,22.60
2022-12-11T00:12:39.685Z,22.70
2022-12-11T00:12:52.113Z,22.40
2022-12-11T00:13:03.834Z,22.10
2022-12-11T00:13:14.614Z,20.10
2022-12-11T00:13:27.088Z,20.20
2022-12-11T00:13:37.845Z,20.70
2022-12-11T00:13:50.294Z,24.10
2022-12-11T00:14:01.024Z,26.90
2022-12-11T00:14:11.767Z,28.40
2022-12-11T00:14:22.564Z,25.50
2022-12-11T00:14:33.324Z,23.00
2022-12-11T00:14:45.808Z,20.70
2022-12-11T00:14:56.534Z,19.60
2022-12-11T00:15:07.674Z,18.80
2022-12-11T00:15:18.634Z,18.80
2022-12-11T00:15:30.316Z,17.90
2022-12-11T00:15:41.082Z,17.80
2022-12-11T00:15:51.844Z,17.80
2022-12-11T00:16:02.586Z,18.40
2022-12-11T00:16:13.349Z,18.80
2022-12-11T00:16:27.088Z,20.10
2022-12-11T00:16:39.097Z,20.70
2022-12-11T00:16:49.958Z,20.40
2022-12-11T00:17:00.814Z,19.00
2022-12-11T00:17:11.627Z,19.00
2022-12-11T00:17:22.355Z,18.30
2022-12-11T00:17:35.556Z,18.50
2022-12-11T00:17:46.315Z,19.60
2022-12-11T00:17:57.076Z,20.10
2022-12-11T00:18:07.823Z,20.40
2022-12-11T00:18:20.276Z,19.20
2022-12-11T00:18:33.519Z,19.10
2022-12-11T00:18:44.305Z,19.60
2022-12-11T00:18:55.276Z,18.90
2022-12-11T00:19:06.037Z,18.50
2022-12-11T00:19:16.820Z,18.00
2022-12-11T00:19:27.584Z,17.60
2022-12-11T00:19:38.325Z,17.10
2022-12-11T00:19:49.097Z,15.90
2022-12-11T00:20:01.341Z,16.90
2022-12-11T00:20:14.073Z,17.10
2022-12-11T00:20:24.877Z,17.90
2022-12-11T00:20:35.621Z,18.30
2022-12-11T00:20:46.395Z,18.20
2022-12-11T00:20:57.128Z,18.20
2022-12-11T00:21:07.876Z,18.30
2022-12-11T00:21:18.635Z,18.10
2022-12-11T00:21:29.391Z,17.90
2022-12-11T00:21:40.148Z,17.60
2022-12-11T00:21:50.935Z,17.30
2022-12-11T00:22:03.216Z,18.20
2022-12-11T00:22:15.417Z,19.80
2022-12-11T00:22:27.188Z,19.10
2022-12-11T00:22:37.949Z,18.00
2022-12-11T00:22:51.613Z,16.90
2022-12-11T00:23:02.388Z,16.70
2022-12-11T00:23:13.118Z,16.40
2022-12-11T00:23:23.886Z,16.70
2022-12-11T00:23:34.627Z,17.40
2022-12-11T00:23:45.408Z,18.10
2022-12-11T00:23:57.136Z,17.70
2022-12-11T00:24:09.680Z,17.20
2022-12-11T00:24:20.445Z,16.60
2022-12-11T00:24:31.215Z,16.90
2022-12-11T00:24:43.666Z,17.00
2022-12-11T00:24:57.393Z,17.10
2022-12-11T00:25:09.983Z,17.80
2022-12-11T00:25:20.817Z,17.10
2022-12-11T00:25:31.576Z,16.40
2022-12-11T00:25:42.337Z,16.30
2022-12-11T00:25:53.079Z,16.60
2022-12-11T00:26:03.837Z,17.20
2022-12-11T00:26:15.615Z,17.20
2022-12-11T00:26:26.337Z,16.40
2022-12-11T00:26:37.067Z,16.20
2022-12-11T00:26:47.846Z,16.00
2022-12-11T00:26:59.545Z,16.10
2022-12-11T00:27:12.033Z,16.90
2022-12-11T00:27:23.717Z,17.80
2022-12-11T00:27:34.496Z,19.00
2022-12-11T00:27:46.996Z,18.50
2022-12-11T00:27:57.757Z,17.80
2022-12-11T00:28:08.486Z,16.40
2022-12-11T00:28:19.256Z,16.80
2022-12-11T00:28:31.738Z,17.00
2022-12-11T00:28:43.466Z,17.30
2022-12-11T00:28:57.216Z,17.00
2022-12-11T00:29:08.963Z,16.80
2022-12-11T00:29:19.707Z,16.80
2022-12-11T00:29:31.469Z,17.40
2022-12-11T00:29:43.256Z,17.90
2022-12-11T00:29:54.048Z,19.00
2022-12-11T00:30:04.794Z,18.70
2022-12-11T00:30:16.536Z,19.50
2022-12-11T00:30:27.296Z,19.30
2022-12-11T00:30:39.795Z,18.70
2022-12-11T00:30:52.336Z,17.10
2022-12-11T00:31:03.147Z,16.80
2022-12-11T00:31:13.910Z,17.20
2022-12-11T00:31:25.633Z,17.00
2022-12-11T00:31:36.434Z,16.70
2022-12-11T00:31:48.206Z,16.30
2022-12-11T00:31:59.052Z,16.50
2022-12-11T00:32:09.890Z,16.70
2022-12-11T00:32:20.648Z,17.00
2022-12-11T00:32:36.157Z,17.40
2022-12-11T00:32:48.268Z,17.30
2022-12-11T00:33:00.517Z,17.90
2022-12-11T00:33:12.725Z,17.90
2022-12-11T00:33:25.008Z,17.40
2022-12-11T00:33:37.425Z,17.10
2022-12-11T00:33:49.177Z,16.80
2022-12-11T00:33:59.898Z,16.50
2022-12-11T00:34:12.367Z,17.20
2022-12-11T00:34:23.107Z,17.20
2022-12-11T00:34:33.869Z,17.70
2022-12-11T00:34:44.667Z,17.90
2022-12-11T00:34:55.427Z,18.80
2022-12-11T00:35:06.194Z,18.20
2022-12-11T00:35:16.917Z,17.70
2022-12-11T00:35:28.647Z,17.60
2022-12-11T00:35:39.397Z,17.50
2022-12-11T00:35:51.139Z,17.80
2022-12-11T00:36:03.600Z,18.00
2022-12-11T00:36:14.357Z,18.20
2022-12-11T00:36:25.091Z,18.40
2022-12-11T00:36:35.858Z,18.10
2022-12-11T00:36:49.577Z,17.20
2022-12-11T00:37:00.447Z,16.10
2022-12-11T00:37:11.227Z,17.10
2022-12-11T00:37:21.979Z,17.30
2022-12-11T00:37:34.005Z,17.60
2022-12-11T00:37:44.771Z,17.20
2022-12-11T00:37:55.517Z,17.60
2022-12-11T00:38:07.218Z,17.70
2022-12-11T00:38:19.677Z,18.10
2022-12-11T00:38:32.110Z,18.20
2022-12-11T00:38:42.869Z,17.70
2022-12-11T00:38:53.657Z,17.90
2022-12-11T00:39:04.418Z,19.50
2022-12-11T00:39:17.148Z,20.70
2022-12-11T00:39:28.120Z,21.00
2022-12-11T00:39:38.928Z,20.50
2022-12-11T00:39:49.709Z,18.80
2022-12-11T00:40:00.443Z,18.20
2022-12-11T00:40:11.228Z,18.70
2022-12-11T00:40:21.998Z,19.60
2022-12-11T00:40:32.759Z,20.00
2022-12-11T00:40:43.496Z,20.10
2022-12-11T00:40:55.919Z,20.70
2022-12-11T00:41:07.887Z,21.00
2022-12-11T00:41:19.640Z,19.60
2022-12-11T00:41:32.690Z,22.00
2022-12-11T00:41:43.439Z,24.20
2022-12-11T00:41:55.151Z,25.20
2022-12-11T00:42:05.891Z,22.90
2022-12-11T00:42:17.618Z,21.80
2022-12-11T00:42:29.342Z,21.10
2022-12-11T00:42:40.077Z,20.20
2022-12-11T00:42:51.809Z,19.50
2022-12-11T00:43:04.269Z,18.90
2022-12-11T00:43:16.724Z,19.10
2022-12-11T00:43:28.520Z,19.60
2022-12-11T00:43:40.990Z,19.90
2022-12-11T00:43:51.753Z,21.10
2022-12-11T00:44:02.517Z,21.20
2022-12-11T00:44:13.290Z,21.50
2022-12-11T00:44:24.091Z,21.00
2022-12-11T00:44:34.831Z,20.90
2022-12-11T00:44:45.580Z,21.20
2022-12-11T00:44:56.332Z,20.50
2022-12-11T00:45:07.083Z,19.80
2022-12-11T00:45:19.507Z,19.90
2022-12-11T00:45:32.045Z,19.10
2022-12-11T00:45:42.844Z,19.70
2022-12-11T00:45:53.685Z,20.40
2022-12-11T00:46:04.489Z,19.80
2022-12-11T00:46:15.307Z,19.70
2022-12-11T00:46:26.146Z,19.50
2022-12-11T00:46:36.897Z,20.10
2022-12-11T00:46:49.109Z,20.40
2022-12-11T00:46:59.876Z,20.20
2022-12-11T00:47:10.647Z,20.50
2022-12-11T00:47:21.495Z,20.50
2022-12-11T00:47:32.249Z,19.60
2022-12-11T00:47:42.978Z,19.10
2022-12-11T00:47:54.730Z,17.90
2022-12-11T00:48:05.521Z,17.60
2022-12-11T00:48:17.249Z,18.70
2022-12-11T00:48:28.049Z,19.80
2022-12-11T00:48:40.497Z,19.10
2022-12-11T00:48:52.940Z,18.10
2022-12-11T00:49:03.724Z,18.10
2022-12-11T00:49:14.483Z,19.30
2022-12-11T00:49:25.310Z,18.70
2022-12-11T00:49:36.818Z,18.50
2022-12-11T00:49:50.193Z,17.80
2022-12-11T00:50:02.043Z,18.60
2022-12-11T00:50:12.829Z,18.80
2022-12-11T00:50:23.589Z,17.90
2022-12-11T00:50:34.318Z,18.20
2022-12-11T00:50:46.029Z,18.30
2022-12-11T00:50:58.500Z,18.40
2022-12-11T00:51:11.199Z,20.20
2022-12-11T00:51:23.651Z,21.50
2022-12-11T00:51:35.389Z,22.10
2022-12-11T00:51:47.823Z,21.70
2022-12-11T00:51:59.684Z,21.70
2022-12-11T00:52:11.409Z,21.10
2022-12-11T00:52:22.159Z,20.30
2022-12-11T00:52:32.940Z,20.20
2022-12-11T00:52:43.670Z,20.30
2022-12-11T00:52:55.401Z,19.90
2022-12-11T00:53:07.819Z,19.10
2022-12-11T00:53:19.601Z,19.20
2022-12-11T00:53:31.380Z,19.30
2022-12-11T00:53:43.658Z,19.10
2022-12-11T00:53:56.860Z,19.20
2022-12-11T00:54:07.649Z,19.10
2022-12-11T00:54:18.391Z,19.20
2022-12-11T00:54:30.122Z,19.40
2022-12-11T00:54:41.819Z,18.80
2022-12-11T00:54:52.564Z,19.40
2022-12-11T00:55:03.306Z,19.80
2022-12-11T00:55:14.090Z,19.80
2022-12-11T00:55:24.850Z,19.70
2022-12-11T00:55:35.728Z,19.20
2022-12-11T00:55:46.565Z,18.30
2022-12-11T00:55:57.342Z,18.30
2022-12-11T00:56:08.079Z,19.00
2022-12-11T00:56:18.881Z,19.90
2022-12-11T00:56:29.610Z,19.60
2022-12-11T00:56:40.362Z,19.20
2022-12-11T00:56:51.116Z,18.50
2022-12-11T00:57:03.542Z,18.60
2022-12-11T00:57:15.231Z,19.40
2022-12-11T00:57:26.040Z,19.10
2022-12-11T00:57:38.268Z,19.60
2022-12-11T00:57:50.740Z,20.00
2022-12-11T00:58:01.524Z,20.70
2022-12-11T00:58:12.251Z,20.70
2022-12-11T00:58:23.057Z,20.80
2022-12-11T00:58:35.477Z,19.60
2022-12-11T00:58:47.207Z,18.40
2022-12-11T00:58:59.672Z,17.40
2022-12-11T00:59:12.116Z,17.20
2022-12-11T00:59:23.841Z,17.90
2022-12-11T00:59:34.601Z,18.80
2022-12-11T00:59:45.361Z,20.70
2022-12-11T00:59:59.141Z,23.30
2022-12-11T01:00:09.923Z,25.40
2022-12-11T01:00:23.130Z,24.10
2022-12-11T01:00:33.901Z,21.40
2022-12-11T01:00:45.661Z,21.50
2022-12-11T01:00:56.568Z,21.30
2022-12-11T01:01:07.443Z,20.80
2022-12-11T01:01:19.256Z,18.80
2022-12-11T01:01:31.042Z,18.50
2022-12-11T01:01:43.327Z,18.90
2022-12-11T01:01:55.021Z,19.20
2022-12-11T01:02:07.649Z,19.00
2022-12-11T01:02:20.120Z,19.50
2022-12-11T01:02:33.118Z,20.30
2022-12-11T01:02:44.007Z,20.20
2022-12-11T01:02:57.295Z,19.20
2022-12-11T01:03:10.147Z,18.40
2022-12-11T01:03:22.643Z,18.50
2022-12-11T01:03:35.411Z,18.50
2022-12-11T01:03:46.231Z,18.70
2022-12-11T01:03:57.089Z,19.00
2022-12-11T01:04:09.550Z,18.70
2022-12-11T01:04:20.289Z,18.90
2022-12-11T01:04:31.025Z,20.00
2022-12-11T01:04:42.772Z,19.50
2022-12-11T01:04:53.519Z,19.20
2022-12-11T01:05:04.283Z,18.70
2022-12-11T01:05:16.005Z,18.60
2022-12-11T01:05:28.259Z,17.80
2022-12-11T01:05:40.690Z,17.70
2022-12-11T01:05:51.471Z,17.70
2022-12-11T01:06:03.202Z,17.60
2022-12-11T01:06:14.033Z,17.20
2022-12-11T01:06:25.762Z,17.40
2022-12-11T01:06:37.733Z,17.60
2022-12-11T01:06:48.510Z,18.10
2022-12-11T01:07:01.900Z,17.50
2022-12-11T01:07:12.751Z,17.80
2022-12-11T01:07:25.942Z,18.00
2022-12-11T01:07:36.710Z,18.00
2022-12-11T01:07:47.502Z,17.80
2022-12-11T01:07:58.322Z,18.20
2022-12-11T01:08:10.866Z,18.30
2022-12-11T01:08:23.357Z,17.80
2022-12-11T01:08:38.741Z,17.90
2022-12-11T01:08:51.409Z,18.70
2022-12-11T01:09:02.143Z,18.60
2022-12-11T01:09:12.902Z,18.80
2022-12-11T01:09:23.672Z,18.10
2022-12-11T01:09:34.445Z,18.50
2022-12-11T01:09:45.172Z,18.80
2022-12-11T01:09:55.902Z,19.10
2022-12-11T01:10:06.651Z,18.80
2022-12-11T01:10:19.131Z,18.90
2022-12-11T01:10:29.956Z,19.40
2022-12-11T01:10:40.718Z,19.30
2022-12-11T01:10:51.506Z,19.50
2022-12-11T01:11:02.293Z,18.90
2022-12-11T01:11:14.731Z,18.70
2022-12-11T01:11:25.505Z,18.50
2022-12-11T01:11:37.212Z,18.20
2022-12-11T01:11:48.942Z,18.10
2022-12-11T01:11:59.693Z,18.20
2022-12-11T01:12:11.913Z,17.80
2022-12-11T01:12:22.661Z,18.00
2022-12-11T01:12:33.434Z,17.90
2022-12-11T01:12:44.194Z,18.00
2022-12-11T01:12:54.942Z,18.00
2022-12-11T01:13:05.693Z,18.10
2022-12-11T01:13:18.200Z,17.90
2022-12-11T01:13:29.008Z,17.10
2022-12-11T01:13:39.827Z,16.70
2022-12-11T01:13:51.566Z,16.70
2022-12-11T01:14:02.334Z,17.10
2022-12-11T01:14:14.562Z,17.50
2022-12-11T01:14:26.300Z,18.20
2022-12-11T01:14:38.021Z,18.10
2022-12-11T01:14:48.762Z,17.70
2022-12-11T01:15:01.202Z,17.50
2022-12-11T01:15:12.428Z,17.70
2022-12-11T01:15:25.072Z,17.90
2022-12-11T01:15:41.170Z,18.50
2022-12-11T01:15:52.392Z,18.30
2022-12-11T01:16:03.162Z,16.80
2022-12-11T01:16:13.961Z,17.40
2022-12-11T01:16:25.779Z,17.10
2022-12-11T01:16:37.531Z,17.40
2022-12-11T01:16:49.264Z,17.50
2022-12-11T01:17:00.060Z,17.80
2022-12-11T01:17:10.835Z,17.80
2022-12-11T01:17:21.563Z,18.60
2022-12-11T01:17:33.784Z,17.80
2022-12-11T01:17:45.533Z,17.70
2022-12-11T01:17:56.283Z,17.30
2022-12-11T01:18:07.997Z,17.00
2022-12-11T01:18:19.719Z,17.50
2022-12-11T01:18:32.174Z,18.10
2022-12-11T01:18:43.903Z,17.80
2022-12-11T01:18:54.682Z,17.30
2022-12-11T01:19:05.440Z,17.20
2022-12-11T01:19:17.113Z,18.10
2022-12-11T01:19:29.726Z,17.50
2022-12-11T01:19:40.495Z,18.10
2022-12-11T01:19:51.299Z,17.80
2022-12-11T01:20:02.069Z,18.90
2022-12-11T01:20:12.832Z,18.40
2022-12-11T01:20:23.585Z,18.70
2022-12-11T01:20:34.366Z,18.20
2022-12-11T01:20:46.834Z,18.10
2022-12-11T01:20:57.614Z,17.60
2022-12-11T01:21:08.371Z,17.50
2022-12-11T01:21:20.845Z,17.20
2022-12-11T01:21:33.306Z,17.40
2022-12-11T01:21:45.034Z,17.90
2022-12-11T01:21:55.806Z,18.30
2022-12-11T01:22:08.005Z,18.00
2022-12-11T01:22:19.755Z,18.20
2022-12-11T01:22:32.244Z,18.00
2022-12-11T01:22:45.874Z,18.60
2022-12-11T01:22:58.384Z,17.90
2022-12-11T01:23:10.105Z,18.50
2022-12-11T01:23:21.843Z,18.40
2022-12-11T01:23:33.554Z,17.60
2022-12-11T01:23:46.295Z,17.30
2022-12-11T01:23:57.054Z,17.70
2022-12-11T01:24:09.014Z,17.30
2022-12-11T01:24:19.815Z,17.40
2022-12-11T01:24:31.568Z,18.10
2022-12-11T01:24:43.265Z,18.70
2022-12-11T01:24:55.004Z,19.20
2022-12-11T01:25:05.785Z,19.10
2022-12-11T01:25:17.532Z,18.40
2022-12-11T01:25:28.264Z,18.50
2022-12-11T01:25:39.060Z,18.50
2022-12-11T01:25:49.812Z,17.90
2022-12-11T01:26:00.575Z,17.90
2022-12-11T01:26:11.316Z,18.40
2022-12-11T01:26:22.074Z,17.80
2022-12-11T01:26:32.904Z,17.40
2022-12-11T01:26:43.633Z,17.60
2022-12-11T01:26:56.084Z,18.40
2022-12-11T01:27:08.844Z,18.60
2022-12-11T01:27:20.605Z,18.30
2022-12-11T01:27:31.383Z,19.50
2022-12-11T01:27:42.144Z,19.50
2022-12-11T01:27:54.657Z,18.70
2022-12-11T01:28:06.856Z,18.40
2022-12-11T01:28:19.315Z,18.50
2022-12-11T01:28:31.071Z,19.00
2022-12-11T01:28:43.285Z,20.20
2022-12-11T01:28:54.037Z,19.60
2022-12-11T01:29:04.803Z,19.50
2022-12-11T01:29:18.538Z,18.30
2022-12-11T01:29:30.276Z,17.80
2022-12-11T01:29:43.485Z,18.00
2022-12-11T01:29:55.226Z,17.50
2022-12-11T01:30:05.958Z,17.30
2022-12-11T01:30:16.756Z,17.40
2022-12-11T01:30:27.577Z,17.50
2022-12-11T01:30:39.345Z,17.40
2022-12-11T01:30:51.554Z,17.30
2022-12-11T01:31:04.726Z,17.70
2022-12-11T01:31:15.536Z,17.90
2022-12-11T01:31:27.988Z,18.10
2022-12-11T01:31:40.197Z,18.10
2022-12-11T01:31:51.959Z,18.10
2022-12-11T01:32:02.709Z,17.40
2022-12-11T01:32:13.474Z,18.30
2022-12-11T01:32:24.230Z,19.00
2022-12-11T01:32:35.933Z,18.30
2022-12-11T01:32:46.684Z,17.90
2022-12-11T01:32:58.396Z,18.60
2022-12-11T01:33:09.135Z,18.40
2022-12-11T01:33:20.865Z,18.00
2022-12-11T01:33:32.601Z,17.40
2022-12-11T01:33:44.364Z,17.70
2022-12-11T01:33:57.340Z,18.30
2022-12-11T01:34:08.088Z,18.40
2022-12-11T01:34:20.536Z,18.50
2022-12-11T01:34:31.348Z,18.20
2022-12-11T01:34:42.996Z,18.40
2022-12-11T01:34:53.774Z,17.70
2022-12-11T01:35:04.535Z,17.10
2022-12-11T01:35:15.304Z,16.80
2022-12-11T01:35:26.056Z,17.20
2022-12-11T01:35:38.276Z,17.20
2022-12-11T01:35:49.055Z,17.40
2022-12-11T01:36:00.787Z,17.30
2022-12-11T01:36:11.525Z,17.70
2022-12-11T01:36:22.315Z,17.30
2022-12-11T01:36:33.089Z,17.10
2022-12-11T01:36:43.818Z,17.20
2022-12-11T01:36:55.538Z,17.80
2022-12-11T01:37:07.993Z,17.20
2022-12-11T01:37:20.433Z,18.20
2022-12-11T01:37:33.646Z,18.00
2022-12-11T01:37:44.427Z,17.70
2022-12-11T01:37:55.223Z,18.50
2022-12-11T01:38:06.056Z,18.30
2022-12-11T01:38:17.775Z,18.10
2022-12-11T01:38:29.496Z,17.30
2022-12-11T01:38:40.225Z,16.90
2022-12-11T01:38:53.179Z,17.60
2022-12-11T01:39:03.915Z,18.00
2022-12-11T01:39:15.638Z,18.80
2022-12-11T01:39:26.437Z,18.20
2022-12-11T01:39:38.126Z,18.30
2022-12-11T01:39:48.893Z,18.90
2022-12-11T01:39:59.647Z,19.30
2022-12-11T01:40:10.424Z,18.70
2022-12-11T01:40:21.157Z,17.50
2022-12-11T01:40:31.966Z,17.30
2022-12-11T01:40:43.696Z,17.80
2022-12-11T01:40:54.450Z,18.50
2022-12-11T01:41:05.217Z,18.20
2022-12-11T01:41:15.956Z,18.10
2022-12-11T01:41:28.924Z,18.90
2022-12-11T01:41:39.707Z,18.10
2022-12-11T01:41:52.032Z,18.60
2022-12-11T01:42:02.764Z,18.20
2022-12-11T01:42:13.504Z,18.30
2022-12-11T01:42:24.254Z,18.20
2022-12-11T01:42:35.007Z,17.30
2022-12-11T01:42:46.728Z,17.30
2022-12-11T01:42:58.439Z,17.60
2022-12-11T01:43:10.153Z,17.80
2022-12-11T01:43:22.399Z,17.80
2022-12-11T01:43:33.191Z,17.70
2022-12-11T01:43:44.940Z,18.10
2022-12-11T01:43:56.689Z,19.00
2022-12-11T01:44:09.909Z,19.20
2022-12-11T01:44:23.136Z,19.10
2022-12-11T01:44:33.917Z,19.70
2022-12-11T01:44:48.058Z,20.00
2022-12-11T01:44:58.816Z,19.70
2022-12-11T01:45:09.782Z,19.00
2022-12-11T01:45:21.602Z,19.90
2022-12-11T01:45:32.340Z,21.20
2022-12-11T01:45:44.159Z,20.20
2022-12-11T01:45:54.924Z,18.80
2022-12-11T01:46:05.701Z,18.50
2022-12-11T01:46:16.538Z,19.20
2022-12-11T01:46:29.482Z,18.00
2022-12-11T01:46:40.220Z,18.00
2022-12-11T01:46:51.940Z,17.60
2022-12-11T01:47:41.132Z,0.00
2022-12-11T01:47:52.840Z,18.00
2022-12-11T01:48:05.558Z,18.40
2022-12-11T01:48:17.301Z,17.40
2022-12-11T01:48:29.779Z,17.70
2022-12-11T01:48:42.990Z,17.10
2022-12-11T01:48:55.921Z,17.50
2022-12-11T01:49:07.654Z,18.00
2022-12-11T01:49:18.411Z,18.00
2022-12-11T01:49:30.899Z,18.10
2022-12-11T01:49:41.698Z,18.40
2022-12-11T01:49:52.488Z,18.50
2022-12-11T01:50:05.713Z,17.90
2022-12-11T01:50:18.132Z,17.70
2022-12-11T01:50:28.903Z,19.30
2022-12-11T01:50:39.632Z,20.30
2022-12-11T01:50:51.878Z,19.70
2022-12-11T01:51:02.640Z,18.50
2022-12-11T01:51:13.380Z,18.00
2022-12-11T01:51:24.124Z,17.30
2022-12-11T01:51:36.561Z,17.60
2022-12-11T01:51:49.011Z,17.70
2022-12-11T01:51:59.752Z,17.80
2022-12-11T01:52:10.552Z,17.80
2022-12-11T01:52:21.375Z,17.50
2022-12-11T01:52:33.081Z,17.10
2022-12-11T01:52:45.520Z,17.40
2022-12-11T01:52:56.280Z,18.30
2022-12-11T01:53:07.050Z,17.80
2022-12-11T01:53:17.820Z,17.80
2022-12-11T01:53:29.532Z,18.50
2022-12-11T01:53:41.153Z,18.50
2022-12-11T01:53:51.931Z,17.80
2022-12-11T01:54:04.402Z,17.30
2022-12-11T01:54:15.159Z,17.40
2022-12-11T01:54:25.930Z,17.50
2022-12-11T01:54:38.669Z,17.90
2022-12-11T01:54:49.476Z,18.40
2022-12-11T01:55:03.091Z,18.60
2022-12-11T01:55:13.827Z,19.00
2022-12-11T01:55:24.571Z,19.70
2022-12-11T01:55:37.070Z,18.70
2022-12-11T01:55:47.862Z,18.80
2022-12-11T01:55:59.623Z,18.40
2022-12-11T01:56:10.361Z,17.90
2022-12-11T01:56:21.150Z,18.10
2022-12-11T01:56:31.941Z,18.10
2022-12-11T01:56:45.150Z,18.00
2022-12-11T01:56:57.362Z,18.20
2022-12-11T01:57:08.133Z,19.10
2022-12-11T01:57:18.923Z,19.50
2022-12-11T01:57:31.380Z,19.70
2022-12-11T01:57:42.234Z,18.30
2022-12-11T01:57:53.010Z,18.30
2022-12-11T01:58:03.772Z,18.20
2022-12-11T01:58:14.518Z,17.50
2022-12-11T01:58:25.261Z,18.00
2022-12-11T01:58:36.022Z,18.70
2022-12-11T01:58:47.860Z,18.90
2022-12-11T01:59:00.303Z,18.50
2022-12-11T01:59:11.073Z,18.60
2022-12-11T01:59:21.862Z,18.20
2022-12-11T01:59:32.593Z,18.20
2022-12-11T01:59:43.374Z,18.50
2022-12-11T01:59:54.161Z,19.00
2022-12-11T02:00:04.951Z,19.20
2022-12-11T02:00:16.667Z,18.90
2022-12-11T02:00:27.480Z,18.00
2022-12-11T02:00:38.212Z,17.40
2022-12-11T02:00:49.951Z,17.30
2022-12-11T02:01:01.741Z,18.60
2022-12-11T02:01:12.459Z,18.20
2022-12-11T02:01:23.282Z,18.40
2022-12-11T02:01:34.072Z,18.30
2022-12-11T02:01:44.857Z,18.40
2022-12-11T02:01:55.637Z,18.20
2022-12-11T02:02:08.895Z,18.90
2022-12-11T02:02:21.639Z,19.10
2022-12-11T02:02:32.471Z,18.60
2022-12-11T02:02:44.271Z,19.40
2022-12-11T02:02:55.036Z,18.90
2022-12-11T02:03:07.502Z,19.30
2022-12-11T02:03:19.986Z,18.40
2022-12-11T02:03:31.739Z,18.30
2022-12-11T02:03:42.482Z,19.00
2022-12-11T02:03:53.212Z,18.90
2022-12-11T02:04:04.964Z,19.40
2022-12-11T02:04:15.704Z,18.80
2022-12-11T02:04:26.450Z,19.00
2022-12-11T02:04:39.642Z,19.60
2022-12-11T02:04:52.626Z,17.80
2022-12-11T02:05:05.355Z,18.50
2022-12-11T02:05:17.077Z,19.50
2022-12-11T02:05:29.554Z,19.90
2022-12-11T02:05:40.310Z,19.30
2022-12-11T02:05:51.043Z,18.60
2022-12-11T02:06:01.845Z,19.50
2022-12-11T02:06:14.593Z,21.20
2022-12-11T02:06:25.343Z,21.10
2022-12-11T02:06:36.114Z,19.80
2022-12-11T02:06:46.946Z,20.00
2022-12-11T02:06:59.173Z,19.40
2022-12-11T02:07:11.813Z,19.30
2022-12-11T02:07:22.552Z,19.40
2022-12-11T02:07:33.334Z,19.20
2022-12-11T02:07:44.130Z,19.00
2022-12-11T02:07:54.930Z,18.50
2022-12-11T02:08:06.688Z,19.10
2022-12-11T02:08:18.952Z,20.00
2022-12-11T02:08:31.460Z,19.20
2022-12-11T02:08:44.913Z,18.30
2022-12-11T02:08:55.664Z,17.60
2022-12-11T02:09:08.150Z,17.60
2022-12-11T02:09:19.922Z,18.00
2022-12-11T02:09:33.123Z,18.60
2022-12-11T02:09:43.873Z,19.50
2022-12-11T02:09:55.620Z,18.50
2022-12-11T02:10:06.384Z,18.80
2022-12-11T02:10:18.833Z,18.60
2022-12-11T02:10:29.573Z,18.90
2022-12-11T02:10:41.275Z,18.10
2022-12-11T02:10:53.034Z,18.70
2022-12-11T02:11:04.754Z,18.50
2022-12-11T02:11:15.483Z,18.30
2022-12-11T02:11:26.254Z,17.80
2022-12-11T02:11:37.972Z,18.40
2022-12-11T02:11:49.708Z,18.40
2022-12-11T02:12:01.944Z,18.80
2022-12-11T02:12:12.791Z,18.90
2022-12-11T02:12:26.566Z,18.30
2022-12-11T02:12:37.325Z,18.30
2022-12-11T02:12:49.067Z,18.20
2022-12-11T02:13:01.524Z,19.30
2022-12-11T02:13:12.284Z,18.60
2022-12-11T02:13:23.074Z,19.30
2022-12-11T02:13:35.583Z,18.60
2022-12-11T02:13:48.044Z,18.90
2022-12-11T02:14:00.045Z,18.70
2022-12-11T02:14:13.042Z,18.40
2022-12-11T02:14:23.775Z,17.60
2022-12-11T02:14:36.243Z,17.90
2022-12-11T02:14:48.753Z,18.40
2022-12-11T02:14:59.544Z,18.40
2022-12-11T02:15:10.616Z,17.70
2022-12-11T02:15:23.706Z,17.90
2022-12-11T02:15:35.435Z,18.40
2022-12-11T02:15:46.193Z,18.00
2022-12-11T02:15:57.046Z,18.30
2022-12-11T02:16:07.837Z,18.10
2022-12-11T02:16:18.654Z,18.40
2022-12-11T02:16:30.429Z,18.80
2022-12-11T02:16:42.234Z,19.50
2022-12-11T02:16:53.988Z,19.20
2022-12-11T02:17:06.196Z,18.80
2022-12-11T02:17:16.997Z,19.10
2022-12-11T02:17:27.795Z,18.90
2022-12-11T02:17:38.566Z,17.80
2022-12-11T02:17:49.324Z,17.90
2022-12-11T02:18:00.104Z,18.50
2022-12-11T02:18:12.562Z,18.80
2022-12-11T02:18:24.798Z,18.70
2022-12-11T02:18:35.554Z,19.00
2022-12-11T02:18:46.357Z,19.30
2022-12-11T02:18:58.076Z,18.00
2022-12-11T02:19:10.544Z,18.20
2022-12-11T02:19:21.314Z,17.80
2022-12-11T02:19:33.777Z,18.10
2022-12-11T02:19:44.554Z,18.00
2022-12-11T02:19:56.774Z,17.90
2022-12-11T02:20:07.555Z,19.00
2022-12-11T02:20:18.323Z,19.50
2022-12-11T02:20:30.074Z,19.80
2022-12-11T02:20:40.843Z,18.70
2022-12-11T02:20:51.585Z,17.90
2022-12-11T02:21:02.386Z,17.60
2022-12-11T02:21:14.172Z,17.90
2022-12-11T02:21:24.936Z,18.00
2022-12-11T02:21:35.724Z,18.50
2022-12-11T02:21:46.466Z,18.90
2022-12-11T02:21:57.205Z,18.70
2022-12-11T02:22:07.965Z,18.50
2022-12-11T02:22:18.736Z,19.20
2022-12-11T02:22:30.953Z,19.00
2022-12-11T02:22:41.713Z,18.60
2022-12-11T02:22:54.958Z,18.30
2022-12-11T02:23:07.409Z,19.00
2022-12-11T02:23:19.135Z,18.10
2022-12-11T02:23:30.884Z,17.70
2022-12-11T02:23:42.578Z,18.10
2022-12-11T02:23:53.328Z,19.30
2022-12-11T02:24:04.094Z,18.80
2022-12-11T02:24:15.825Z,18.40
2022-12-11T02:24:26.556Z,18.10
2022-12-11T02:24:37.316Z,18.00
2022-12-11T02:24:49.016Z,19.90
2022-12-11T02:24:59.795Z,20.50
2022-12-11T02:25:13.113Z,19.90
2022-12-11T02:25:24.871Z,19.40
2022-12-11T02:25:38.107Z,19.50
2022-12-11T02:25:48.946Z,19.60
2022-12-11T02:26:00.665Z,19.30
2022-12-11T02:26:11.435Z,19.10
2022-12-11T02:26:22.215Z,20.20
2022-12-11T02:26:33.001Z,20.50
2022-12-11T02:26:45.487Z,20.90
2022-12-11T02:26:57.194Z,21.10
2022-12-11T02:27:07.946Z,20.10
2022-12-11T02:27:20.547Z,20.10
2022-12-11T02:27:31.256Z,20.20
2022-12-11T02:27:42.056Z,20.30
2022-12-11T02:27:52.807Z,18.70
2022-12-11T02:28:03.547Z,18.20
2022-12-11T02:28:16.257Z,18.40
2022-12-11T02:28:27.008Z,20.00